Data for 11/04/2009

Time Sea-Level Adjusted Pressure Absolute Pressure Temperature Relative Humidity Dew Point   
(mb) (inHg) (mb) (inHg) (C) (F) (%) (C) (F)
00:05 1025 30.27 855 25.25 0.1 32.2 58 -7.2 19.1
00:10 1025 30.27 854 25.22 0.1 32.2 58 -7.3 18.9
00:15 1025 30.27 854 25.22 0.2 32.4 57 -7.3 18.8
00:20 1025 30.27 854 25.22 0.2 32.3 58 -7.2 19.1
00:25 1025 30.27 854 25.22 -0.2 31.7 59 -7.2 19
00:30 1025 30.27 854 25.22 -0.3 31.4 60 -7.1 19.2
00:35 1025 30.27 854 25.22 -0.5 31 60 -7.4 18.7
00:40 1025 30.27 855 25.25 -0.4 31.2 58 -7.7 18.1
00:45 1025 30.27 854 25.22 -0.2 31.6 57 -7.8 18
00:50 1025 30.27 854 25.22 0.1 32.2 55 -8 17.6
00:55 1025 30.27 854 25.22 0.4 32.7 53 -8.2 17.2
01:00 1025 30.27 854 25.22 0.6 33.2 53 -7.8 18
01:05 1025 30.27 854 25.22 0.7 33.2 52 -8.1 17.3
01:10 1025 30.27 854 25.22 0.9 33.5 54 -7.5 18.5
01:15 1025 30.27 854 25.22 0.2 32.4 54 -8 17.6
01:20 1025 30.27 854 25.22 -0.2 31.7 56 -7.9 17.7
01:25 1025 30.27 854 25.22 -0.3 31.5 55 -8.4 16.9
01:30 1025 30.27 854 25.22 0.1 32.1 52 -8.6 16.5
01:35 1025 30.27 854 25.22 0.5 33 52 -8.3 17.1
01:40 1025 30.27 854 25.22 0.9 33.6 50 -8.5 16.7
01:45 1025 30.27 854 25.22 0.9 33.6 50 -8.4 16.8
01:50 1025 30.27 854 25.22 0.8 33.5 50 -8.5 16.7
01:55 1025 30.27 854 25.22 1 33.8 52 -7.9 17.9
02:00 1025 30.27 854 25.22 0.2 32.4 47 -9.7 14.6
02:05 1025 30.27 854 25.22 0.7 33.3 47 -9.3 15.2
02:10 1025 30.27 854 25.22 0.5 33 48 -9.3 15.3
02:15 1025 30.27 854 25.22 0.5 33 49 -9 15.7
02:20 1025 30.27 854 25.22 0.5 32.9 49 -9 15.8
02:25 1025 30.27 854 25.22 0.4 32.8 50 -8.7 16.4
02:30 1025 30.27 854 25.22 0 32.1 53 -8.4 16.9
02:35 1025 30.27 854 25.22 -0.5 31.1 55 -8.5 16.8
02:40 1025 30.27 854 25.22 -0.7 30.7 55 -8.7 16.4
02:45 1025 30.27 854 25.22 -0.4 31.2 54 -8.6 16.6
02:50 1025 30.27 854 25.22 -0.8 30.5 57 -8.3 17
02:55 1025 30.27 854 25.22 -1.1 30.1 55 -8.9 16
03:00 1025 30.27 854 25.22 -0.7 30.7 54 -8.8 16.2
03:05 1024 30.24 854 25.22 -0.9 30.3 57 -8.4 16.9
03:10 1024 30.24 854 25.22 -1 30.3 54 -9.1 15.6
03:15 1024 30.24 854 25.22 -0.3 31.4 50 -9.5 14.9
03:20 1024 30.24 854 25.22 0.3 32.5 49 -9.3 15.2
03:25 1024 30.24 854 25.22 0.4 32.8 48 -9.4 15.1
03:30 1024 30.24 854 25.22 0.2 32.4 49 -9.2 15.5
03:35 1024 30.24 854 25.22 -0.2 31.6 52 -8.9 16
03:40 1024 30.24 854 25.22 -0.2 31.6 51 -9.3 15.3
03:45 1024 30.24 853 25.19 0 32.1 50 -9.2 15.5
03:50 1024 30.24 853 25.19 -0.5 31.1 51 -9.5 15
03:55 1024 30.24 853 25.19 -0.4 31.3 46 -10.6 13
04:00 1024 30.24 853 25.19 -0.5 31.1 48 -10.2 13.7
04:05 1024 30.24 853 25.19 -0.7 30.7 48 -10.5 13
04:10 1024 30.24 853 25.19 -0.7 30.7 50 -10 14
04:15 1024 30.24 853 25.19 -0.3 31.5 48 -10 14.1
04:20 1024 30.24 853 25.19 -0.6 30.9 49 -10 14
04:25 1024 30.24 853 25.19 -1.1 30 52 -9.7 14.5
04:30 1024 30.24 853 25.19 -2.2 28 55 -10 14
04:35 1024 30.24 853 25.19 -2.3 27.9 53 -10.7 12.7
04:40 1024 30.24 853 25.19 -1.9 28.6 51 -10.9 12.5
04:45 1024 30.24 853 25.19 -1.9 28.5 51 -10.8 12.6
04:50 1024 30.24 853 25.19 -2 28.5 51 -10.9 12.4
04:55 1024 30.24 853 25.19 -1.8 28.8 49 -11.1 12
05:00 1024 30.24 853 25.19 -1.6 29 49 -11.1 12
05:05 1024 30.24 853 25.19 -1.9 28.6 51 -10.7 12.7
05:10 1024 30.24 853 25.19 -2.3 27.8 53 -10.6 13
05:15 1024 30.24 853 25.19 -2.6 27.3 55 -10.4 13.2
05:20 1024 30.24 853 25.19 -2.7 27.2 53 -11.1 12
05:25 1024 30.24 853 25.19 -1.7 28.9 48 -11.2 11.8
05:30 1024 30.24 853 25.19 -1 30.2 48 -10.6 12.9
05:35 1024 30.24 853 25.19 -1.5 29.4 54 -9.7 14.6
05:40 1024 30.24 853 25.19 -2.1 28.2 52 -10.6 13
05:45 1024 30.24 853 25.19 -1.7 28.9 53 -10.1 13.8
05:50 1024 30.24 853 25.19 -1.5 29.3 53 -9.9 14.1
05:55 1024 30.24 853 25.19 -1.3 29.6 51 -10.3 13.5
06:00 1024 30.24 853 25.19 -0.9 30.3 51 -10 14.1
06:05 1024 30.24 853 25.19 -0.9 30.4 50 -10.2 13.7
06:10 1024 30.24 853 25.19 -0.9 30.3 51 -10 14.1
06:15 1024 30.24 853 25.19 -1.3 29.7 51 -10.1 13.8
06:20 1024 30.24 853 25.19 -1.7 29 52 -10.2 13.7
06:25 1024 30.24 853 25.19 -1.1 30 50 -10.2 13.6
06:30 1024 30.24 853 25.19 -1.3 29.7 49 -10.7 12.7
06:35 1024 30.24 853 25.19 -1.5 29.3 53 -9.8 14.3
06:40 1024 30.24 853 25.19 -1.2 29.9 48 -10.8 12.6
06:45 1024 30.24 853 25.19 -0.5 31.2 47 -10.4 13.2
06:50 1024 30.24 853 25.19 -0.3 31.5 46 -10.5 13
06:55 1024 30.24 853 25.19 -0.2 31.7 44 -11 12.2
07:00 1024 30.24 853 25.19 0.2 32.4 44 -10.7 12.8
07:05 1024 30.24 853 25.19 -0.1 31.7 44 -11.1 12.1
07:10 1024 30.24 853 25.19 -1.2 29.9 48 -10.8 12.6
07:15 1024 30.24 853 25.19 -1.5 29.3 50 -10.7 12.8
07:20 1024 30.24 853 25.19 -1.6 29.1 49 -10.9 12.3
07:25 1024 30.24 853 25.19 -0.9 30.5 46 -11.1 12
07:30 1024 30.24 853 25.19 -0.2 31.6 47 -10.3 13.5
07:35 1024 30.24 853 25.19 -0.1 31.8 48 -10 14.1
07:40 1024 30.24 853 25.19 0 32.1 48 -9.8 14.4
07:45 1024 30.24 853 25.19 -0.1 31.8 48 -9.7 14.5
07:50 1024 30.24 853 25.19 0 32 48 -9.7 14.5
07:55 1024 30.24 853 25.19 -0 31.9 48 -9.8 14.3
08:00 1024 30.24 853 25.19 -0.3 31.5 49 -9.8 14.4
08:05 1024 30.24 853 25.19 -0.5 31.1 49 -9.9 14.2
08:10 1024 30.24 853 25.19 -0.4 31.3 48 -10.1 13.9
08:15 1024 30.24 853 25.19 -0.2 31.6 46 -10.4 13.2
08:20 1024 30.24 853 25.19 0.6 33.1 42 -10.9 12.4
08:25 1024 30.24 853 25.19 1.2 34.2 43 -10 13.9
08:30 1024 30.24 853 25.19 1.1 34 40 -11.1 12
08:35 1024 30.24 853 25.19 1.3 34.3 39 -11.3 11.7
08:40 1024 30.24 853 25.19 1.9 35.5 39 -10.6 13
08:45 1024 30.24 853 25.19 2.5 36.5 38 -10.3 13.4
08:50 1024 30.24 853 25.19 2.8 37.1 39 -9.9 14.1
08:55 1024 30.24 853 25.19 3 37.5 39 -9.7 14.6
09:00 1024 30.24 853 25.19 2.9 37.3 40 -9.2 15.4
09:05 1024 30.24 853 25.19 2.7 36.8 43 -8.8 16.2
09:10 1024 30.24 853 25.19 3 37.4 43 -8.5 16.7
09:15 1024 30.24 853 25.19 3.3 38 43 -8.2 17.3
09:20 1024 30.24 853 25.19 3 37.4 44 -8 17.6
09:25 1024 30.24 853 25.19 2.4 36.4 43 -8.8 16.2
09:30 1024 30.24 853 25.19 2.5 36.6 42 -9.1 15.7
09:35 1024 30.24 853 25.19 2.9 37.2 40 -9.4 15.2
09:40 1024 30.24 853 25.19 3.4 38.2 41 -8.6 16.6
09:45 1024 30.24 853 25.19 4 39.3 41 -8 17.6
09:50 1024 30.24 853 25.19 4.1 39.4 41 -8 17.6
09:55 1023 30.21 853 25.19 4.1 39.4 40 -8.4 17
10:00 1023 30.21 853 25.19 4.5 40 39 -8.2 17.2
10:05 1023 30.21 853 25.19 4.8 40.6 39 -8.1 17.4
10:10 1023 30.21 853 25.19 4.4 39.8 39 -8.5 16.6
10:15 1023 30.21 852 25.16 4.7 40.4 37 -9 15.9
10:20 1023 30.21 852 25.16 5 40.9 34 -9.6 14.7
10:25 1023 30.21 852 25.16 5 41.1 34 -9.6 14.7
10:30 1023 30.21 852 25.16 5.8 42.5 32 -9.6 14.8
10:35 1023 30.21 852 25.16 6.4 43.5 33 -8.7 16.4
10:40 1023 30.21 852 25.16 7 44.6 31 -9 15.9
10:45 1023 30.21 852 25.16 7.6 45.6 29 -9.2 15.5
10:50 1023 30.21 852 25.16 8.3 46.9 28 -9.3 15.2
10:55 1023 30.21 852 25.16 8.6 47.5 30 -7.8 17.9
11:00 1023 30.21 852 25.16 7.4 45.3 32 -8.2 17.2
11:05 1023 30.21 852 25.16 7.5 45.5 31 -8.4 16.9
11:10 1023 30.21 852 25.16 7.2 45 35 -7.3 18.8
11:15 1023 30.21 852 25.16 6.5 43.7 34 -8.3 17.1
11:20 1023 30.21 852 25.16 6.4 43.4 35 -8.1 17.3
11:25 1023 30.21 852 25.16 7.1 44.8 33 -8.2 17.3
11:30 1023 30.21 852 25.16 6.4 43.6 34 -8.4 16.9
11:35 1023 30.21 852 25.16 6.2 43.2 34 -8.5 16.7
11:40 1023 30.21 852 25.16 6.9 44.5 33 -8.4 17
11:45 1023 30.21 852 25.16 8.1 46.6 29 -8.8 16.2
11:50 1022 30.18 852 25.16 8.8 47.9 31 -7.3 18.9
11:55 1022 30.18 852 25.16 7.8 46 31 -8.1 17.4
12:00 1022 30.18 852 25.16 8 46.4 31 -7.9 17.8
12:05 1022 30.18 851 25.13 8.3 46.9 30 -8.1 17.4
12:10 1022 30.18 851 25.13 8.2 46.7 31 -7.9 17.8
12:15 1022 30.18 851 25.13 8.6 47.4 30 -8.2 17.3
12:20 1022 30.18 851 25.13 8.5 47.2 30 -8.3 17.1
12:25 1022 30.18 851 25.13 8.9 48 29 -8.2 17.2
12:30 1022 30.18 851 25.13 10.2 50.3 26 -8.7 16.4
12:35 1022 30.18 851 25.13 10.8 51.4 24 -8.8 16.2
12:40 1022 30.18 851 25.13 10 50.1 25 -8.9 16
12:45 1022 30.18 851 25.13 10.2 50.3 28 -7.6 18.3
12:50 1022 30.18 851 25.13 10.1 50.2 26 -8.7 16.4
12:55 1022 30.18 851 25.13 10 50 27 -8.4 16.9
13:00 1022 30.18 851 25.13 10.2 50.3 26 -8.5 16.8
13:05 1022 30.18 851 25.13 11.4 52.5 26 -7.6 18.3
13:10 1022 30.18 851 25.13 11.4 52.5 24 -8.4 16.8
13:15 1022 30.18 851 25.13 12.2 54 24 -7.9 17.8
13:20 1022 30.18 851 25.13 11.8 53.2 26 -7.2 19
13:25 1022 30.18 851 25.13 11.4 52.5 26 -7.3 18.9
13:30 1022 30.18 851 25.13 12.3 54.2 26 -6.4 20.5
13:35 1021 30.15 851 25.13 11 51.9 28 -7 19.5
13:40 1021 30.15 851 25.13 11.2 52.1 26 -7.5 18.4
13:45 1021 30.15 851 25.13 12.4 54.3 25 -7.1 19.2
13:50 1021 30.15 851 25.13 13.1 55.5 24 -7.3 18.9
13:55 1021 30.15 850 25.1 12.2 54 25 -7.2 19
14:00 1021 30.15 850 25.1 11.9 53.3 27 -6.7 20
14:05 1021 30.15 850 25.1 12.3 54.2 25 -7 19.4
14:10 1021 30.15 850 25.1 11.9 53.4 26 -6.8 19.7
14:15 1021 30.15 850 25.1 11.6 52.8 26 -7.3 18.9
14:20 1021 30.15 850 25.1 12.4 54.3 23 -8.2 17.2
14:25 1021 30.15 850 25.1 13.5 56.3 22 -7.8 18
14:30 1021 30.15 850 25.1 13.5 56.3 22 -7.9 17.8
14:35 1021 30.15 850 25.1 13.3 55.9 22 -7.8 18
14:40 1021 30.15 850 25.1 12.3 54.1 23 -8.3 17
14:45 1021 30.15 850 25.1 12.1 53.7 24 -7.7 18.1
14:50 1021 30.15 850 25.1 11.8 53.3 23 -8.6 16.5
14:55 1021 30.15 850 25.1 12.4 54.2 23 -8.4 16.9
15:00 1021 30.15 850 25.1 12.7 54.9 21 -8.8 16.2
15:05 1021 30.15 850 25.1 13.3 55.9 21 -8.8 16.1
15:10 1021 30.15 850 25.1 13.6 56.5 21 -8 17.6
15:15 1021 30.15 850 25.1 13.5 56.3 21 -8.5 16.8
15:20 1021 30.15 850 25.1 13.3 55.9 22 -8.2 17.2
15:25 1021 30.15 850 25.1 13 55.3 22 -8.2 17.2
15:30 1021 30.15 850 25.1 12.6 54.7 24 -7.5 18.4
15:35 1021 30.15 850 25.1 12.6 54.8 23 -7.9 17.9
15:40 1021 30.15 850 25.1 13 55.4 23 -7.9 17.9
15:45 1021 30.15 850 25.1 13.1 55.7 23 -7.4 18.7
15:50 1021 30.15 850 25.1 12.3 54.2 24 -7.8 17.9
15:55 1021 30.15 850 25.1 12.3 54.1 25 -7.3 18.9
16:00 1021 30.15 850 25.1 12.2 53.9 25 -7.2 19.1
16:05 1020 30.12 850 25.1 12.1 53.7 25 -7.3 18.8
16:10 1020 30.12 850 25.1 12.1 53.7 25 -7.4 18.8
16:15 1020 30.12 850 25.1 12 53.5 26 -7.1 19.3
16:20 1020 30.12 850 25.1 11.7 53 26 -7.2 19.1
16:25 1020 30.12 850 25.1 12 53.5 25 -7.2 19
16:30 1020 30.12 850 25.1 12.3 54.1 26 -6.9 19.6
16:35 1020 30.12 850 25.1 12.2 54 25 -7 19.4
16:40 1020 30.12 849 25.07 12.1 53.8 26 -6.7 20
16:45 1020 30.12 849 25.07 11.9 53.4 26 -7 19.4
16:50 1020 30.12 849 25.07 11.8 53.2 27 -6.7 20
16:55 1020 30.12 849 25.07 11.6 52.9 27 -6.7 20
17:00 1020 30.12 849 25.07 11.4 52.6 28 -6.3 20.6
17:05 1020 30.12 849 25.07 10.7 51.2 30 -6.3 20.7
17:10 1020 30.12 849 25.07 10.2 50.4 29 -7.1 19.2
17:15 1020 30.12 849 25.07 9.8 49.6 30 -6.8 19.8
17:20 1020 30.12 849 25.07 9.7 49.4 31 -6.5 20.3
17:25 1020 30.12 850 25.1 9.4 49 33 -5.9 21.4
17:30 1020 30.12 850 25.1 8.6 47.4 37 -5.1 22.8
17:35 1020 30.12 850 25.1 8 46.3 39 -5.2 22.7
17:40 1020 30.12 850 25.1 7.6 45.7 40 -5.2 22.6
17:45 1020 30.12 850 25.1 7.6 45.6 40 -5.3 22.5
17:50 1020 30.12 850 25.1 7.5 45.4 40 -5.3 22.5
17:55 1020 30.12 850 25.1 7.1 44.8 42 -5 23
18:00 1020 30.12 850 25.1 6.5 43.6 44 -4.9 23.1
18:05 1020 30.12 850 25.1 6 42.7 45 -5 23
18:10 1020 30.12 849 25.07 5.8 42.5 44 -5.3 22.4
18:15 1020 30.12 849 25.07 6.1 43 42 -5.7 21.7
18:20 1020 30.12 849 25.07 6.7 44 39 -6.3 20.7
18:25 1020 30.12 849 25.07 7.1 44.9 39 -5.8 21.5
18:30 1020 30.12 849 25.07 6.9 44.4 41 -5.4 22.3
18:35 1020 30.12 849 25.07 6.5 43.8 42 -5.5 22.1
18:40 1020 30.12 849 25.07 6.5 43.6 40 -6.1 21.1
18:45 1020 30.12 849 25.07 6.5 43.7 40 -6 21.2
18:50 1020 30.12 849 25.07 6.5 43.7 40 -6.2 20.8
18:55 1020 30.12 849 25.07 6.5 43.7 40 -6.3 20.7
19:00 1020 30.12 849 25.07 6.9 44.5 37 -6.7 19.9
19:05 1020 30.12 849 25.07 6.8 44.2 40 -5.8 21.6
19:10 1020 30.12 849 25.07 6.5 43.7 40 -6.3 20.7
19:15 1020 30.12 849 25.07 6.6 43.9 37 -7.1 19.1
19:20 1020 30.12 849 25.07 7.1 44.9 38 -6.1 21.1
19:25 1020 30.12 849 25.07 6.6 43.9 39 -6.3 20.6
19:30 1020 30.12 849 25.07 6.6 43.9 39 -6.4 20.5
19:35 1020 30.12 849 25.07 6.6 43.9 39 -6.3 20.6
19:40 1020 30.12 849 25.07 6.4 43.6 40 -6.2 20.8
19:45 1020 30.12 849 25.07 6.3 43.3 40 -6.4 20.5
19:50 1020 30.12 849 25.07 6.3 43.3 40 -6.4 20.4
19:55 1020 30.12 849 25.07 6.5 43.8 38 -6.6 20.1
20:00 1020 30.12 849 25.07 6.9 44.5 37 -6.9 19.6
20:05 1020 30.12 849 25.07 6.4 43.6 40 -6.3 20.6
20:10 1020 30.12 849 25.07 6.7 44.1 37 -7 19.4
20:15 1019 30.09 849 25.07 7.1 44.7 37 -6.6 20.2
20:20 1019 30.09 849 25.07 6.6 43.9 37 -7.1 19.2
20:25 1019 30.09 849 25.07 6.9 44.5 36 -7.2 19
20:30 1020 30.12 849 25.07 7.1 44.8 34 -7.5 18.4
20:35 1019 30.09 849 25.07 7.7 45.8 34 -7.3 18.8
20:40 1020 30.12 849 25.07 7.6 45.7 35 -7 19.5
20:45 1019 30.09 849 25.07 7 44.6 36 -7.1 19.2
20:50 1019 30.09 849 25.07 6.9 44.5 36 -7 19.3
20:55 1019 30.09 849 25.07 7.1 44.8 35 -7.5 18.5
21:00 1019 30.09 849 25.07 7.5 45.5 34 -7.3 18.8
21:05 1019 30.09 849 25.07 7.4 45.2 36 -6.8 19.7
21:10 1019 30.09 849 25.07 6.8 44.3 35 -7.6 18.3
21:15 1020 30.12 849 25.07 7.5 45.6 32 -8 17.5
21:20 1020 30.12 849 25.07 8 46.5 33 -7.4 18.7
21:25 1020 30.12 849 25.07 7.7 45.9 33 -7.6 18.4
21:30 1020 30.12 849 25.07 7.4 45.4 34 -7.5 18.4
21:35 1020 30.12 849 25.07 7.4 45.3 33 -7.8 17.9
21:40 1020 30.12 849 25.07 7.6 45.7 32 -8 17.6
21:45 1020 30.12 849 25.07 7.6 45.7 32 -8 17.6
21:50 1020 30.12 849 25.07 7.4 45.4 34 -7.6 18.3
21:55 1020 30.12 849 25.07 6.7 44.1 35 -7.5 18.5
22:00 1020 30.12 849 25.07 6.1 42.9 38 -7.3 18.9
22:05 1020 30.12 849 25.07 5.4 41.7 41 -6.8 19.8
22:10 1020 30.12 849 25.07 5.2 41.3 39 -7.6 18.2
22:15 1020 30.12 849 25.07 6.2 43.2 35 -8.1 17.4
22:20 1020 30.12 849 25.07 6.1 42.9 39 -6.8 19.8
22:25 1020 30.12 849 25.07 5.1 41.1 45 -6 21.1
22:30 1020 30.12 849 25.07 4.2 39.5 43 -7.4 18.7
22:35 1020 30.12 849 25.07 5.3 41.5 39 -7.4 18.6
22:40 1020 30.12 849 25.07 5.1 41.1 40 -7.5 18.5
22:45 1020 30.12 849 25.07 5.5 41.9 39 -7.3 18.9
22:50 1020 30.12 849 25.07 5.3 41.5 40 -7.1 19.2
22:55 1020 30.12 849 25.07 5.7 42.2 36 -8.2 17.2
23:00 1020 30.12 849 25.07 6.1 42.9 36 -8 17.6
23:05 1020 30.12 849 25.07 6 42.7 37 -7.8 18
23:10 1020 30.12 849 25.07 5.7 42.3 37 -7.9 17.9
23:15 1020 30.12 849 25.07 5.6 42.1 38 -7.6 18.3
23:20 1019 30.09 849 25.07 5.4 41.7 39 -7.6 18.3
23:25 1019 30.09 849 25.07 5.2 41.3 39 -7.8 18
23:30 1019 30.09 849 25.07 5.5 41.9 36 -8.4 16.8
23:35 1019 30.09 849 25.07 5.9 42.6 35 -8.3 17
23:40 1019 30.09 848 25.04 6 42.7 36 -7.9 17.7
23:45 1019 30.09 848 25.04 5.7 42.2 36 -8.1 17.4
23:50 1019 30.09 848 25.04 5.5 42 38 -7.6 18.4
23:55 1019 30.09 848 25.04 5.3 41.5 37 -8.1 17.3
24:00 1019 30.09 848 25.04 5.7 42.2 36 -8.3 17